createdAt,value
2023-04-19T00:02:25.834Z,74.93
2023-04-19T00:04:53.935Z,75.00
2023-04-19T00:07:21.944Z,75.18
2023-04-19T00:09:49.695Z,75.22
2023-04-19T00:12:17.402Z,75.59
2023-04-19T00:14:45.166Z,75.59
2023-04-19T00:17:13.685Z,75.87
2023-04-19T00:19:41.386Z,75.55
2023-04-19T00:22:09.161Z,75.99
2023-04-19T00:24:36.866Z,76.03
2023-04-19T00:27:04.931Z,75.84
2023-04-19T00:29:32.727Z,76.26
2023-04-19T00:32:01.061Z,76.06
2023-04-19T00:34:28.737Z,76.23
2023-04-19T00:36:56.745Z,76.21
2023-04-19T00:39:24.471Z,76.10
2023-04-19T00:41:53.263Z,76.64
2023-04-19T00:44:20.983Z,76.74
2023-04-19T00:46:49.707Z,76.42
2023-04-19T00:49:21.822Z,76.48
2023-04-19T00:51:50.974Z,76.91
2023-04-19T00:54:20.109Z,77.04
2023-04-19T00:56:47.790Z,76.94
2023-04-19T00:59:16.490Z,77.15
2023-04-19T01:01:44.757Z,77.30
2023-04-19T01:04:12.859Z,77.31
2023-04-19T01:06:42.071Z,77.27
2023-04-19T01:09:09.829Z,77.26
2023-04-19T01:11:37.573Z,77.60
2023-04-19T01:14:05.351Z,78.07
2023-04-19T01:16:33.915Z,78.05
2023-04-19T01:19:02.330Z,77.86
2023-04-19T01:21:30.798Z,77.62
2023-04-19T01:23:58.599Z,77.73
2023-04-19T01:26:26.452Z,77.82
2023-04-19T01:28:54.225Z,77.67
2023-04-19T01:31:22.488Z,77.84
2023-04-19T01:33:50.369Z,78.06
2023-04-19T01:36:18.150Z,78.00
2023-04-19T01:38:47.860Z,78.22
2023-04-19T01:41:15.977Z,78.08
2023-04-19T01:43:43.679Z,78.08
2023-04-19T01:46:11.929Z,78.48
2023-04-19T01:48:39.708Z,78.46
2023-04-19T01:51:07.454Z,78.58
2023-04-19T01:53:35.445Z,78.83
2023-04-19T01:56:03.190Z,79.00
2023-04-19T01:58:30.897Z,78.97
2023-04-19T02:00:59.208Z,78.78
2023-04-19T02:03:45.743Z,79.02
2023-04-19T02:06:14.426Z,79.02
2023-04-19T02:08:42.953Z,79.07
2023-04-19T02:11:16.400Z,79.08
2023-04-19T02:13:44.144Z,79.04
2023-04-19T02:16:29.561Z,79.27
2023-04-19T02:18:58.865Z,79.14
2023-04-19T02:21:27.678Z,79.36
2023-04-19T02:23:55.469Z,79.39
2023-04-19T02:26:24.725Z,79.50
2023-04-19T02:28:53.266Z,79.37
2023-04-19T02:31:21.259Z,79.44
2023-04-19T02:33:49.533Z,79.34
2023-04-19T02:36:17.939Z,79.37
2023-04-19T02:38:45.840Z,79.57
2023-04-19T02:41:13.587Z,79.54
2023-04-19T02:43:41.546Z,79.50
2023-04-19T02:46:10.593Z,79.43
2023-04-19T02:48:39.018Z,79.45
2023-04-19T02:51:07.367Z,79.56
2023-04-19T02:53:35.433Z,79.56
2023-04-19T02:56:03.956Z,79.60
2023-04-19T02:58:31.682Z,79.67
2023-04-19T03:00:59.453Z,79.70
2023-04-19T03:03:28.384Z,79.64
2023-04-19T03:05:56.299Z,79.77
2023-04-19T03:08:24.039Z,79.70
2023-04-19T03:10:51.842Z,79.86
2023-04-19T03:13:19.643Z,79.73
2023-04-19T03:15:48.676Z,79.61
2023-04-19T03:18:18.033Z,79.84
2023-04-19T03:20:45.954Z,80.01
2023-04-19T03:23:13.674Z,79.70
2023-04-19T03:25:41.369Z,79.58
2023-04-19T03:28:09.920Z,79.63
2023-04-19T03:30:37.667Z,79.59
2023-04-19T03:33:05.781Z,79.37
2023-04-19T03:35:33.606Z,79.52
2023-04-19T03:38:01.337Z,79.25
2023-04-19T03:40:30.929Z,79.27
2023-04-19T03:42:59.274Z,79.17
2023-04-19T03:45:27.436Z,79.09
2023-04-19T03:47:55.173Z,79.13
2023-04-19T03:50:22.905Z,79.32
2023-04-19T03:52:50.754Z,79.30
2023-04-19T03:55:18.633Z,79.58
2023-04-19T03:57:46.740Z,79.71
2023-04-19T04:00:15.367Z,79.61
2023-04-19T04:02:43.275Z,79.70
2023-04-19T04:05:11.407Z,79.89
2023-04-19T04:07:39.258Z,79.96
2023-04-19T04:10:07.688Z,80.13
2023-04-19T04:12:35.347Z,80.23
2023-04-19T04:15:03.690Z,80.38
2023-04-19T04:17:31.525Z,80.42
2023-04-19T04:19:59.854Z,80.52
2023-04-19T04:22:28.431Z,80.60
2023-04-19T04:24:58.258Z,80.37
2023-04-19T04:27:26.078Z,80.30
2023-04-19T04:29:54.606Z,80.27
2023-04-19T04:32:23.647Z,80.21
2023-04-19T04:34:51.709Z,80.43
2023-04-19T04:37:19.481Z,80.33
2023-04-19T04:39:47.499Z,80.32
2023-04-19T04:42:15.240Z,80.32
2023-04-19T04:44:44.979Z,80.39
2023-04-19T04:47:13.787Z,80.47
2023-04-19T04:49:41.603Z,80.46
2023-04-19T04:52:09.621Z,80.65
2023-04-19T04:54:37.408Z,80.79
2023-04-19T04:57:05.748Z,81.08
2023-04-19T04:59:33.959Z,81.03
2023-04-19T05:02:01.750Z,81.16
2023-04-19T05:04:29.520Z,81.18
2023-04-19T05:06:57.253Z,81.18
2023-04-19T05:09:25.206Z,81.43
2023-04-19T05:11:53.409Z,81.20
2023-04-19T05:14:21.859Z,81.20
2023-04-19T05:16:49.859Z,81.14
2023-04-19T05:19:17.636Z,81.12
2023-04-19T05:21:45.461Z,81.31
2023-04-19T05:24:13.237Z,81.29
2023-04-19T05:26:41.624Z,81.28
2023-04-19T05:29:09.974Z,81.16
2023-04-19T05:31:37.842Z,81.32
2023-04-19T05:34:05.695Z,81.11
2023-04-19T05:36:33.449Z,81.21
2023-04-19T05:39:01.604Z,81.05
2023-04-19T05:41:29.906Z,81.04
2023-04-19T05:43:58.067Z,81.10
2023-04-19T05:46:26.194Z,81.00
2023-04-19T05:48:53.970Z,80.88
2023-04-19T05:51:21.733Z,80.77
2023-04-19T05:53:49.468Z,80.70
2023-04-19T05:56:17.681Z,80.57
2023-04-19T05:58:45.993Z,80.60
2023-04-19T06:01:14.392Z,80.50
2023-04-19T06:03:42.403Z,80.62
2023-04-19T06:06:10.460Z,80.62
2023-04-19T06:08:38.293Z,80.58
2023-04-19T06:11:15.930Z,80.59
2023-04-19T06:13:53.012Z,80.66
2023-04-19T06:16:20.998Z,80.72
2023-04-19T06:18:48.769Z,80.77
2023-04-19T06:21:17.044Z,81.00
2023-04-19T06:23:44.801Z,81.06
2023-04-19T06:26:12.982Z,81.09
2023-04-19T06:28:41.095Z,81.12
2023-04-19T06:31:08.798Z,81.14
2023-04-19T06:33:37.205Z,81.52
2023-04-19T06:36:05.596Z,81.42
2023-04-19T06:38:33.312Z,81.23
2023-04-19T06:41:01.656Z,81.41
2023-04-19T06:43:29.387Z,81.22
2023-04-19T06:46:01.135Z,81.12
2023-04-19T06:48:29.472Z,81.07
2023-04-19T06:50:57.795Z,81.10
2023-04-19T06:53:27.507Z,81.18
2023-04-19T06:56:03.060Z,81.11
2023-04-19T06:58:35.541Z,81.12
2023-04-19T07:01:04.829Z,81.05
2023-04-19T07:03:33.096Z,81.00
2023-04-19T07:06:01.703Z,81.03
2023-04-19T07:08:42.305Z,81.06
2023-04-19T07:11:16.921Z,81.13
2023-04-19T07:13:44.845Z,81.18
2023-04-19T07:16:14.549Z,81.25
2023-04-19T07:18:44.023Z,81.26
2023-04-19T07:21:12.413Z,81.20
2023-04-19T07:23:40.762Z,81.16
2023-04-19T07:26:08.682Z,81.25
2023-04-19T07:28:36.569Z,81.27
2023-04-19T07:31:04.432Z,81.26
2023-04-19T07:33:32.864Z,81.18
2023-04-19T07:36:00.671Z,81.19
2023-04-19T07:38:28.944Z,81.30
2023-04-19T07:40:56.644Z,81.30
2023-04-19T07:43:24.506Z,81.25
2023-04-19T07:45:52.896Z,81.30
2023-04-19T07:48:21.158Z,81.23
2023-04-19T07:50:49.388Z,81.22
2023-04-19T07:53:18.462Z,81.22
2023-04-19T07:55:46.211Z,81.35
2023-04-19T07:58:14.004Z,81.36
2023-04-19T08:00:41.728Z,81.20
2023-04-19T08:03:10.267Z,81.10
2023-04-19T08:05:38.702Z,81.09
2023-04-19T08:08:06.621Z,81.03
2023-04-19T08:10:35.993Z,81.12
2023-04-19T08:13:06.147Z,81.14
2023-04-19T08:18:07.140Z,80.96
2023-04-19T08:20:35.388Z,80.87
2023-04-19T08:23:14.012Z,80.78
2023-04-19T08:25:49.334Z,80.73
2023-04-19T08:28:18.063Z,80.64
2023-04-19T08:30:46.393Z,80.54
2023-04-19T08:33:14.702Z,80.63
2023-04-19T08:35:42.531Z,80.61
2023-04-19T08:38:10.296Z,80.56
2023-04-19T08:40:50.113Z,80.48
2023-04-19T08:43:19.638Z,80.48
2023-04-19T08:45:50.537Z,80.44
2023-04-19T08:48:21.285Z,80.42
2023-04-19T08:51:04.464Z,80.37
2023-04-19T08:53:35.208Z,80.38
2023-04-19T08:56:17.483Z,80.39
2023-04-19T09:01:34.015Z,80.47
2023-04-19T09:04:26.517Z,80.38
2023-04-19T09:06:57.236Z,80.07
2023-04-19T09:12:00.718Z,79.67
2023-04-19T09:14:30.290Z,79.41
2023-04-19T09:17:17.637Z,79.00
2023-04-19T09:19:49.601Z,78.50
2023-04-19T09:22:18.633Z,78.03
2023-04-19T09:25:27.715Z,77.82
2023-04-19T09:27:37.216Z,77.07
2023-04-19T09:30:10.807Z,76.02
2023-04-19T09:32:47.442Z,75.49
2023-04-19T09:35:15.520Z,75.48
2023-04-19T09:40:25.540Z,75.12
2023-04-19T09:48:07.857Z,74.57
2023-04-19T09:50:46.201Z,74.36
2023-04-19T09:53:23.873Z,73.12
2023-04-19T09:56:00.181Z,73.63
2023-04-19T10:01:13.575Z,74.07
2023-04-19T10:03:49.452Z,74.07
2023-04-19T10:08:53.659Z,73.47
2023-04-19T10:11:22.918Z,72.85
2023-04-19T10:13:56.378Z,72.77
2023-04-19T10:16:24.810Z,72.01
2023-04-19T10:18:54.049Z,71.43
2023-04-19T10:21:22.321Z,72.11
2023-04-19T10:23:50.707Z,72.72
2023-04-19T10:26:19.165Z,73.40
2023-04-19T10:28:48.255Z,73.66
2023-04-19T10:31:21.330Z,73.96
2023-04-19T10:33:51.569Z,74.27
2023-04-19T10:36:21.464Z,74.64
2023-04-19T10:38:55.838Z,74.81
2023-04-19T10:41:23.837Z,74.91
2023-04-19T10:43:58.266Z,74.94
2023-04-19T10:46:26.525Z,75.06
2023-04-19T10:49:00.371Z,75.19
2023-04-19T10:51:32.853Z,75.01
2023-04-19T10:54:23.751Z,74.75
2023-04-19T10:57:06.212Z,74.69
2023-04-19T10:59:36.778Z,74.69
2023-04-19T11:02:23.323Z,74.80
2023-04-19T11:04:51.278Z,74.94
2023-04-19T11:07:21.342Z,75.16
2023-04-19T11:09:51.198Z,75.38
2023-04-19T11:12:20.636Z,75.60
2023-04-19T11:14:59.905Z,75.66
2023-04-19T11:17:32.588Z,76.07
2023-04-19T11:20:08.689Z,75.95
2023-04-19T11:22:39.550Z,75.82
2023-04-19T11:25:20.916Z,75.80
2023-04-19T11:27:52.284Z,75.75
2023-04-19T11:30:22.715Z,75.59
2023-04-19T11:32:56.685Z,75.40
2023-04-19T11:35:27.265Z,75.41
2023-04-19T11:37:56.758Z,75.46
2023-04-19T11:40:26.505Z,75.25
2023-04-19T11:42:56.288Z,74.94
2023-04-19T11:45:32.983Z,74.78
2023-04-19T11:48:01.676Z,74.28
2023-04-19T11:50:39.822Z,73.88
2023-04-19T11:53:13.812Z,73.93
2023-04-19T11:55:45.501Z,73.97
2023-04-19T11:58:30.237Z,73.87
2023-04-19T12:01:08.885Z,74.07
2023-04-19T12:03:43.296Z,73.72
2023-04-19T12:06:16.891Z,73.32
2023-04-19T12:08:47.855Z,73.27
2023-04-19T12:11:17.279Z,73.14
2023-04-19T12:13:45.269Z,72.75
2023-04-19T12:16:14.089Z,72.69
2023-04-19T12:18:43.911Z,72.27
2023-04-19T12:21:23.810Z,72.16
2023-04-19T12:23:55.613Z,71.54
2023-04-19T12:26:24.637Z,71.37
2023-04-19T12:28:57.362Z,71.11
2023-04-19T12:31:26.231Z,71.19
2023-04-19T12:33:54.712Z,71.16
2023-04-19T12:36:22.494Z,70.97
2023-04-19T12:38:50.720Z,69.83
2023-04-19T12:41:19.351Z,69.67
2023-04-19T12:43:47.212Z,69.89
2023-04-19T12:46:15.092Z,70.15
2023-04-19T12:48:42.877Z,70.10
2023-04-19T12:51:11.109Z,69.60
2023-04-19T12:53:39.298Z,69.02
2023-04-19T12:56:07.693Z,69.41
2023-04-19T12:58:35.835Z,69.62
2023-04-19T13:01:03.617Z,69.41
2023-04-19T13:03:33.363Z,69.16
2023-04-19T13:06:01.666Z,69.17
2023-04-19T13:08:44.062Z,69.22
2023-04-19T13:11:15.937Z,68.98
2023-04-19T13:13:43.678Z,68.69
2023-04-19T13:16:11.595Z,68.56
2023-04-19T13:18:40.078Z,67.62
2023-04-19T13:21:08.617Z,67.97
2023-04-19T13:23:37.535Z,67.68
2023-04-19T13:26:06.339Z,68.35
2023-04-19T13:28:36.032Z,68.22
2023-04-19T13:31:05.388Z,68.45
2023-04-19T13:33:33.386Z,68.43
2023-04-19T13:36:01.736Z,68.61
2023-04-19T13:38:30.155Z,68.76
2023-04-19T13:40:58.001Z,68.77
2023-04-19T13:43:26.273Z,69.14
2023-04-19T13:45:54.179Z,69.59
2023-04-19T13:48:22.046Z,70.06
2023-04-19T13:50:51.924Z,69.99
2023-04-19T13:53:20.234Z,70.01
2023-04-19T13:55:47.960Z,70.09
2023-04-19T13:58:15.704Z,69.76
2023-04-19T14:00:43.845Z,69.84
2023-04-19T14:03:12.586Z,69.59
2023-04-19T14:05:41.147Z,69.32
2023-04-19T14:08:27.920Z,69.35
2023-04-19T14:10:55.679Z,69.43
2023-04-19T14:13:23.924Z,69.70
2023-04-19T14:15:52.196Z,70.02
2023-04-19T14:18:38.607Z,70.25
2023-04-19T14:21:06.445Z,70.75
2023-04-19T14:23:34.626Z,71.09
2023-04-19T14:26:02.789Z,71.35
2023-04-19T14:28:30.599Z,71.74
2023-04-19T14:30:58.389Z,72.10
2023-04-19T14:33:26.938Z,72.55
2023-04-19T14:35:54.740Z,72.99
2023-04-19T14:38:22.820Z,73.16
2023-04-19T14:40:51.296Z,73.51
2023-04-19T14:43:19.278Z,73.60
2023-04-19T14:45:49.826Z,73.95
2023-04-19T14:48:20.823Z,74.20
2023-04-19T14:50:49.814Z,74.33
2023-04-19T14:53:18.815Z,74.24
2023-04-19T14:55:46.595Z,74.33
2023-04-19T14:58:14.516Z,74.43
2023-04-19T15:00:42.308Z,74.76
2023-04-19T15:03:10.350Z,74.59
2023-04-19T15:05:39.523Z,74.58
2023-04-19T15:08:12.443Z,74.64
2023-04-19T15:10:45.185Z,74.65
2023-04-19T15:13:12.910Z,74.93
2023-04-19T15:15:40.689Z,75.01
2023-04-19T15:18:09.083Z,74.84
2023-04-19T15:20:36.917Z,74.88
2023-04-19T15:23:04.655Z,74.92
2023-04-19T15:25:32.344Z,74.95
2023-04-19T15:28:00.036Z,74.98
2023-04-19T15:30:27.814Z,75.02
2023-04-19T15:32:55.609Z,75.05
2023-04-19T15:35:23.355Z,74.99
2023-04-19T15:37:51.082Z,74.91
2023-04-19T15:40:18.957Z,74.91
2023-04-19T15:42:46.654Z,74.88
2023-04-19T15:45:14.837Z,74.98
2023-04-19T15:47:42.634Z,75.00
2023-04-19T15:50:11.061Z,75.03
2023-04-19T15:52:38.770Z,75.04
2023-04-19T15:55:06.793Z,75.14
2023-04-19T15:57:34.537Z,75.37
2023-04-19T16:00:02.260Z,75.51
2023-04-19T16:02:30.203Z,75.67
2023-04-19T16:04:58.219Z,75.81
2023-04-19T16:07:26.135Z,76.09
2023-04-19T16:09:54.158Z,76.11
2023-04-19T16:12:21.859Z,76.16
2023-04-19T16:14:49.618Z,76.30
2023-04-19T16:17:17.366Z,76.33
2023-04-19T16:19:45.066Z,76.33
2023-04-19T16:22:12.869Z,76.40
2023-04-19T16:24:40.700Z,76.41
2023-04-19T16:27:08.456Z,76.47
2023-04-19T16:29:38.507Z,76.59
2023-04-19T16:32:07.168Z,76.73
2023-04-19T16:34:34.991Z,76.80
2023-04-19T16:37:03.153Z,76.95
2023-04-19T16:39:31.174Z,77.05
2023-04-19T16:41:58.916Z,77.15
2023-04-19T16:44:26.683Z,77.24
2023-04-19T16:46:54.608Z,77.50
2023-04-19T16:49:22.650Z,77.55
2023-04-19T16:51:50.374Z,77.72
2023-04-19T16:54:18.181Z,77.81
2023-04-19T16:56:45.868Z,78.03
2023-04-19T16:59:13.552Z,78.18
2023-04-19T17:01:41.319Z,78.21
2023-04-19T17:04:09.338Z,78.37
2023-04-19T17:06:37.374Z,78.60
2023-04-19T17:09:05.753Z,78.74
2023-04-19T17:11:34.082Z,78.78
2023-04-19T17:14:01.861Z,79.04
2023-04-19T17:16:29.643Z,79.33
2023-04-19T17:18:57.417Z,79.49
2023-04-19T17:21:25.930Z,79.88
2023-04-19T17:23:53.923Z,79.93
2023-04-19T17:26:21.607Z,79.99
2023-04-19T17:28:49.283Z,80.00
2023-04-19T17:31:17.048Z,79.94
2023-04-19T17:33:44.784Z,80.16
2023-04-19T17:36:12.476Z,80.49
2023-04-19T17:38:40.165Z,80.69
2023-04-19T17:41:16.147Z,80.90
2023-04-19T17:43:45.028Z,81.07
2023-04-19T17:46:13.648Z,81.40
2023-04-19T17:48:42.033Z,81.54
2023-04-19T17:51:09.898Z,81.66
2023-04-19T17:53:37.649Z,81.85
2023-04-19T17:56:05.482Z,81.85
2023-04-19T17:58:35.211Z,81.80
2023-04-19T18:01:06.794Z,81.82
2023-04-19T18:03:35.044Z,81.96
2023-04-19T18:06:02.980Z,82.15
2023-04-19T18:08:31.120Z,82.39
2023-04-19T18:10:58.966Z,82.60
2023-04-19T18:13:26.760Z,82.67
2023-04-19T18:15:54.636Z,82.80
2023-04-19T18:18:22.709Z,82.93
2023-04-19T18:20:50.498Z,83.23
2023-04-19T18:23:18.823Z,83.19
2023-04-19T18:25:55.958Z,83.23
2023-04-19T18:28:23.716Z,83.52
2023-04-19T18:30:51.558Z,83.81
2023-04-19T18:33:19.306Z,83.96
2023-04-19T18:35:46.999Z,84.02
2023-04-19T18:38:15.456Z,84.14
2023-04-19T18:40:43.260Z,84.26
2023-04-19T18:43:10.989Z,84.35
2023-04-19T18:45:38.839Z,84.24
2023-04-19T18:48:07.024Z,84.43
2023-04-19T18:50:37.072Z,84.59
2023-04-19T18:53:05.276Z,84.60
2023-04-19T18:55:33.148Z,84.72
2023-04-19T18:58:01.614Z,84.88
2023-04-19T19:00:29.541Z,84.91
2023-04-19T19:02:57.752Z,85.00
2023-04-19T19:05:26.408Z,84.99
2023-04-19T19:07:54.815Z,85.15
2023-04-19T19:10:48.524Z,85.35
2023-04-19T19:13:13.060Z,85.47
2023-04-19T19:15:42.077Z,85.52
2023-04-19T19:18:09.880Z,85.52
2023-04-19T19:20:37.688Z,85.65
2023-04-19T19:23:06.113Z,85.77
2023-04-19T19:25:33.868Z,85.83
2023-04-19T19:28:09.276Z,85.87
2023-04-19T19:30:40.202Z,85.89
2023-04-19T19:33:11.954Z,85.81
2023-04-19T19:35:40.122Z,85.85
2023-04-19T19:38:08.390Z,85.85
2023-04-19T19:40:46.334Z,85.86
2023-04-19T19:43:24.547Z,85.88
2023-04-19T19:45:52.303Z,85.82
2023-04-19T19:48:21.684Z,85.82
2023-04-19T19:51:17.404Z,85.73
2023-04-19T19:53:37.620Z,85.65
2023-04-19T19:56:13.054Z,85.59
2023-04-19T19:58:50.367Z,85.60
2023-04-19T20:01:22.656Z,85.59
2023-04-19T20:03:51.811Z,85.57
2023-04-19T20:07:07.536Z,85.48
2023-04-19T20:09:07.748Z,85.39
2023-04-19T20:11:35.571Z,85.34
2023-04-19T20:14:03.336Z,85.30
2023-04-19T20:16:31.940Z,85.25
2023-04-19T20:19:00.320Z,85.24
2023-04-19T20:21:28.130Z,85.15
2023-04-19T20:23:55.891Z,85.03
2023-04-19T20:26:23.679Z,84.94
2023-04-19T20:28:52.702Z,84.80
2023-04-19T20:31:22.666Z,84.67
2023-04-19T20:33:52.713Z,84.56
2023-04-19T20:36:23.329Z,84.51
2023-04-19T20:38:51.365Z,84.50
2023-04-19T20:41:21.977Z,84.53
2023-04-19T20:43:49.756Z,84.44
2023-04-19T20:46:17.605Z,84.32
2023-04-19T20:48:45.373Z,84.19
2023-04-19T20:51:15.371Z,84.09
2023-04-19T20:53:43.761Z,84.00
2023-04-19T20:56:11.504Z,83.81
2023-04-19T20:58:39.640Z,83.75
2023-04-19T21:01:07.461Z,83.69
2023-04-19T21:03:35.411Z,83.59
2023-04-19T21:06:03.360Z,83.50
2023-04-19T21:08:31.632Z,83.45
2023-04-19T21:10:59.806Z,83.33
2023-04-19T21:13:27.508Z,83.23
2023-04-19T21:15:55.906Z,83.15
2023-04-19T21:18:24.714Z,83.12
2023-04-19T21:20:52.409Z,83.07
2023-04-19T21:23:20.688Z,83.04
2023-04-19T21:25:48.432Z,83.02
2023-04-19T21:28:16.223Z,83.04
2023-04-19T21:30:44.020Z,83.06
2023-04-19T21:33:11.957Z,83.07
2023-04-19T21:35:39.744Z,83.05
2023-04-19T21:38:08.177Z,83.10
2023-04-19T21:40:35.904Z,83.17
2023-04-19T21:43:03.902Z,83.24
2023-04-19T21:45:31.592Z,83.28
2023-04-19T21:47:59.371Z,83.26
2023-04-19T21:50:27.200Z,83.33
2023-04-19T21:52:55.339Z,83.36
2023-04-19T21:55:23.201Z,83.40
2023-04-19T21:57:51.447Z,83.38
2023-04-19T22:00:19.218Z,83.34
2023-04-19T22:02:47.097Z,83.30
2023-04-19T22:05:16.763Z,83.28
2023-04-19T22:07:45.007Z,83.24
2023-04-19T22:10:13.913Z,82.98
2023-04-19T22:12:55.120Z,82.65
2023-04-19T22:15:28.088Z,82.36
2023-04-19T22:17:57.647Z,82.14
2023-04-19T22:20:26.871Z,82.08
2023-04-19T22:22:55.652Z,82.03
2023-04-19T22:25:23.323Z,82.04
2023-04-19T22:27:51.028Z,81.96
2023-04-19T22:30:19.254Z,81.85
2023-04-19T22:32:47.065Z,81.76
2023-04-19T22:35:15.105Z,81.89
2023-04-19T22:37:43.067Z,81.90
2023-04-19T22:40:11.311Z,81.99
2023-04-19T22:42:39.124Z,82.09
2023-04-19T22:45:08.210Z,82.11
2023-04-19T22:47:37.623Z,82.14
2023-04-19T22:50:06.565Z,82.17
2023-04-19T22:52:34.764Z,82.22
2023-04-19T22:55:02.564Z,82.28
2023-04-19T22:57:30.300Z,82.33
2023-04-19T22:59:58.565Z,82.35
2023-04-19T23:02:26.276Z,82.37
2023-04-19T23:04:54.571Z,82.42
2023-04-19T23:07:22.771Z,82.45
2023-04-19T23:09:51.054Z,82.43
2023-04-19T23:12:18.725Z,82.41
2023-04-19T23:14:48.581Z,82.39
2023-04-19T23:17:17.344Z,82.35
2023-04-19T23:19:45.174Z,82.29
2023-04-19T23:22:12.952Z,82.25
2023-04-19T23:24:40.628Z,82.17
2023-04-19T23:27:08.415Z,82.06
2023-04-19T23:29:36.162Z,81.99
2023-04-19T23:32:04.100Z,82.01
2023-04-19T23:34:32.073Z,82.06
2023-04-19T23:37:00.057Z,82.07
2023-04-19T23:39:27.880Z,82.06
2023-04-19T23:41:55.702Z,82.08
2023-04-19T23:44:23.520Z,82.14
2023-04-19T23:46:51.474Z,82.23
2023-04-19T23:49:19.605Z,82.36
2023-04-19T23:51:50.277Z,82.42
2023-04-19T23:54:26.265Z,82.44
2023-04-19T23:56:54.903Z,82.52
2023-04-19T23:59:26.813Z,82.58
